Algosoo — VGJD — position and weather

sailwx.info

Track history (hours):
 
Tides and Currents Weather Stations Pressure Air Temp Water Temp Dewpoint Dewpoint Depression Visibility Wind Speed Wind Dir Waves Ship Positions

Algosoo

Last reported at 2015-Jan-02 13:33 UTC. Time now 2015-Mar-04 22:45 UTC.
Position N 45°55' W 083°53'.
Warning: this ship's position is months out of date.

Length 223 m; draft 7.1 m.

Type: Cargo ship. MMSI: 316001799.

Date/timePositionNaut miles runAvg speedWind from/ knotsBaromVisibWave heightAir tempDewpointWater temp
2015-Jan-02 13:33N 45°55' W 083°53'  
2014-Dec-31 00:09N 42°29' W 080°06'190 7.4
2014-Dec-29 22:27N 44°07' W 076°22'0 0.2
2014-Dec-29 21:34N 44°07' W 076°22'0 0.1
2014-Dec-29 20:34N 44°07' W 076°22'7 7.1
2014-Dec-29 19:33N 44°12' W 076°15'112 7.0
2014-Dec-29 03:25N 45°13' W 074°02'7 7.6
2014-Dec-29 02:33N 45°18' W 073°56'1 1.0
2014-Dec-29 01:33N 45°19' W 073°55'3 3.4
2014-Dec-29 00:33N 45°21' W 073°52'7 7.4
2014-Dec-28 23:33N 45°25' W 073°42'6 5.7
2014-Dec-28 22:33N 45°24' W 073°34'1 1.4
2014-Dec-28 21:33N 45°24' W 073°32'51 6.4
2014-Dec-28 13:33N 46°09' W 072°57'9 8.8
2014-Dec-28 12:33N 46°14' W 072°46'8 8.3
2014-Dec-28 11:33N 46°17' W 072°35'0 0.4
2014-Dec-28 10:33N 46°18' W 072°35'0 0.0
2014-Dec-28 09:33N 46°18' W 072°35'3 3.2
2014-Dec-28 08:33N 46°20' W 072°32'8 8.1
2014-Dec-28 07:33N 46°25' W 072°22'8 8.0
2014-Dec-28 06:32N 46°30' W 072°14'  
2014-Dec-26 01:05N 46°28' W 072°15'612.2
2014-Dec-26 00:33N 46°25' W 072°22'9 8.9
2014-Dec-25 23:33N 46°20' W 072°33'0 0.0
2014-Dec-25 22:33N 46°20' W 072°33'0 0.0
2014-Dec-25 21:33N 46°20' W 072°33'0 0.0
2014-Dec-25 20:33N 46°20' W 072°33'0 0.0
2014-Dec-25 19:33N 46°20' W 072°33'0 0.0
2014-Dec-25 18:33N 46°20' W 072°33'0 0.0
2014-Dec-25 17:33N 46°20' W 072°33'0 0.0
2014-Dec-25 16:33N 46°20' W 072°33'0 0.0
2014-Dec-25 15:33N 46°20' W 072°33'0 0.0
2014-Dec-25 14:33N 46°20' W 072°33'0 0.0
2014-Dec-25 13:33N 46°20' W 072°33'0 0.0
2014-Dec-25 12:33N 46°20' W 072°33'0 0.0
2014-Dec-25 11:33N 46°20' W 072°33'0 0.0
2014-Dec-25 10:33N 46°20' W 072°33'0 0.0
2014-Dec-25 09:33N 46°20' W 072°33'0 0.0
2014-Dec-25 08:33N 46°20' W 072°33'0 0.0
2014-Dec-25 07:33N 46°20' W 072°33'0 0.0
2014-Dec-25 06:33N 46°20' W 072°33'0 0.0
2014-Dec-25 05:33N 46°20' W 072°33'0 0.0
2014-Dec-25 04:33N 46°20' W 072°33'0 0.0
2014-Dec-25 03:33N 46°20' W 072°33'0 0.0
2014-Dec-25 02:33N 46°20' W 072°33'0 0.0
2014-Dec-25 01:33N 46°20' W 072°33'0 0.0
2014-Dec-25 00:34N 46°20' W 072°33'0 0.0
2014-Dec-24 23:33N 46°20' W 072°33'0 0.0
2014-Dec-24 22:33N 46°20' W 072°33'0 0.0
2014-Dec-24 21:33N 46°20' W 072°33'0 0.0
2014-Dec-24 20:33N 46°20' W 072°33'0 0.0
2014-Dec-24 19:33N 46°20' W 072°33'0 0.0
2014-Dec-24 18:33N 46°20' W 072°33'0 0.0
2014-Dec-24 17:33N 46°20' W 072°33'0 0.0
2014-Dec-24 16:33N 46°20' W 072°33'0 0.4
2014-Dec-24 15:33N 46°19' W 072°33'7 7.3
2014-Dec-24 14:33N 46°16' W 072°42'1010.4
2014-Dec-24 13:33N 46°11' W 072°55'48 9.5
2014-Dec-24 08:33N 45°30' W 073°31'2 1.6
2014-Dec-24 07:11N 45°28' W 073°30'7 2.8
2014-Dec-24 04:32N 45°25' W 073°39'7 7.2
2014-Dec-24 03:33N 45°23' W 073°49'5 5.4
2014-Dec-24 02:32N 45°19' W 073°55'1 0.9
2014-Dec-24 01:33N 45°18' W 073°56'3 2.6
2014-Dec-24 00:33N 45°16' W 073°57'  
Track history (hours):
 
Tides and Currents Weather Stations Pressure Air Temp Water Temp Dewpoint Dewpoint Depression Visibility Wind Speed Wind Dir Waves Ship Positions

Algosoo

Last reported at 2015-Jan-02 13:33 UTC. Time now 2015-Mar-04 22:45 UTC.
Position N 45°55' W 083°53'.
Warning: this ship's position is months out of date.

Length 223 m; draft 7.1 m.

Type: Cargo ship. MMSI: 316001799.

Date/timePositionNaut miles runAvg speedWind from/ knotsBaromVisibWave heightAir tempDewpointWater temp
2015-Jan-02 13:33N 45°55' W 083°53'  
2014-Dec-31 00:09N 42°29' W 080°06'190 7.4
2014-Dec-29 22:27N 44°07' W 076°22'0 0.2
2014-Dec-29 21:34N 44°07' W 076°22'0 0.1
2014-Dec-29 20:34N 44°07' W 076°22'7 7.1
2014-Dec-29 19:33N 44°12' W 076°15'112 7.0
2014-Dec-29 03:25N 45°13' W 074°02'7 7.6
2014-Dec-29 02:33N 45°18' W 073°56'1 1.0
2014-Dec-29 01:33N 45°19' W 073°55'3 3.4
2014-Dec-29 00:33N 45°21' W 073°52'7 7.4
2014-Dec-28 23:33N 45°25' W 073°42'6 5.7
2014-Dec-28 22:33N 45°24' W 073°34'1 1.4
2014-Dec-28 21:33N 45°24' W 073°32'51 6.4
2014-Dec-28 13:33N 46°09' W 072°57'9 8.8
2014-Dec-28 12:33N 46°14' W 072°46'8 8.3
2014-Dec-28 11:33N 46°17' W 072°35'0 0.4
2014-Dec-28 10:33N 46°18' W 072°35'0 0.0
2014-Dec-28 09:33N 46°18' W 072°35'3 3.2
2014-Dec-28 08:33N 46°20' W 072°32'8 8.1
2014-Dec-28 07:33N 46°25' W 072°22'8 8.0
2014-Dec-28 06:32N 46°30' W 072°14'  
2014-Dec-26 01:05N 46°28' W 072°15'612.2
2014-Dec-26 00:33N 46°25' W 072°22'9 8.9
2014-Dec-25 23:33N 46°20' W 072°33'0 0.0
2014-Dec-25 22:33N 46°20' W 072°33'0 0.0
2014-Dec-25 21:33N 46°20' W 072°33'0 0.0
2014-Dec-25 20:33N 46°20' W 072°33'0 0.0
2014-Dec-25 19:33N 46°20' W 072°33'0 0.0
2014-Dec-25 18:33N 46°20' W 072°33'0 0.0
2014-Dec-25 17:33N 46°20' W 072°33'0 0.0
2014-Dec-25 16:33N 46°20' W 072°33'0 0.0
2014-Dec-25 15:33N 46°20' W 072°33'0 0.0
2014-Dec-25 14:33N 46°20' W 072°33'0 0.0
2014-Dec-25 13:33N 46°20' W 072°33'0 0.0
2014-Dec-25 12:33N 46°20' W 072°33'0 0.0
2014-Dec-25 11:33N 46°20' W 072°33'0 0.0
2014-Dec-25 10:33N 46°20' W 072°33'0 0.0
2014-Dec-25 09:33N 46°20' W 072°33'0 0.0
2014-Dec-25 08:33N 46°20' W 072°33'0 0.0
2014-Dec-25 07:33N 46°20' W 072°33'0 0.0
2014-Dec-25 06:33N 46°20' W 072°33'0 0.0
2014-Dec-25 05:33N 46°20' W 072°33'0 0.0
2014-Dec-25 04:33N 46°20' W 072°33'0 0.0
2014-Dec-25 03:33N 46°20' W 072°33'0 0.0
2014-Dec-25 02:33N 46°20' W 072°33'0 0.0
2014-Dec-25 01:33N 46°20' W 072°33'0 0.0
2014-Dec-25 00:34N 46°20' W 072°33'0 0.0
2014-Dec-24 23:33N 46°20' W 072°33'0 0.0
2014-Dec-24 22:33N 46°20' W 072°33'0 0.0
2014-Dec-24 21:33N 46°20' W 072°33'0 0.0
2014-Dec-24 20:33N 46°20' W 072°33'0 0.0
2014-Dec-24 19:33N 46°20' W 072°33'0 0.0
2014-Dec-24 18:33N 46°20' W 072°33'0 0.0
2014-Dec-24 17:33N 46°20' W 072°33'0 0.0
2014-Dec-24 16:33N 46°20' W 072°33'0 0.4
2014-Dec-24 15:33N 46°19' W 072°33'7 7.3
2014-Dec-24 14:33N 46°16' W 072°42'1010.4
2014-Dec-24 13:33N 46°11' W 072°55'48 9.5
2014-Dec-24 08:33N 45°30' W 073°31'2 1.6
2014-Dec-24 07:11N 45°28' W 073°30'7 2.8
2014-Dec-24 04:32N 45°25' W 073°39'7 7.2
2014-Dec-24 03:33N 45°23' W 073°49'5 5.4
2014-Dec-24 02:32N 45°19' W 073°55'1 0.9
2014-Dec-24 01:33N 45°18' W 073°56'3 2.6
2014-Dec-24 00:33N 45°16' W 073°57'  

Dump ship's entire track history